createdAt,value
2022-11-05T00:00:42.706Z,13.86
2022-11-05T00:04:08.961Z,13.54
2022-11-05T00:07:34.390Z,13.48
2022-11-05T00:10:40.218Z,12.87
2022-11-05T00:14:12.897Z,12.96
2022-11-05T00:17:18.475Z,12.99
2022-11-05T00:20:26.183Z,12.92
2022-11-05T00:23:49.451Z,12.53
2022-11-05T00:26:55.294Z,12.49
2022-11-05T00:30:00.940Z,12.73
2022-11-05T00:33:06.758Z,12.64
2022-11-05T00:36:12.607Z,12.89
2022-11-05T00:39:18.607Z,13.10
2022-11-05T00:42:42.022Z,12.77
2022-11-05T00:45:47.412Z,12.67
2022-11-05T00:49:10.721Z,13.01
2022-11-05T00:52:36.767Z,13.27
2022-11-05T00:55:43.027Z,12.91
2022-11-05T00:58:48.984Z,12.48
2022-11-05T01:01:55.414Z,12.52
2022-11-05T01:05:01.057Z,12.66
2022-11-05T01:08:06.748Z,12.79
2022-11-05T01:11:13.267Z,12.47
2022-11-05T01:14:18.945Z,12.54
2022-11-05T01:17:24.439Z,12.59
2022-11-05T01:20:29.910Z,12.83
2022-11-05T01:23:35.300Z,12.82
2022-11-05T01:26:40.751Z,12.72
2022-11-05T01:29:46.182Z,12.52
2022-11-05T01:32:51.482Z,12.88
2022-11-05T01:35:57.009Z,12.78
2022-11-05T01:39:03.635Z,12.70
2022-11-05T01:42:15.121Z,13.09
2022-11-05T01:45:22.186Z,12.89
2022-11-05T01:48:30.940Z,12.44
2022-11-05T01:51:36.396Z,12.31
2022-11-05T01:54:42.018Z,12.28
2022-11-05T01:57:47.595Z,12.45
2022-11-05T02:00:53.678Z,12.40
2022-11-05T02:04:01.062Z,12.72
2022-11-05T02:07:10.573Z,12.68
2022-11-05T02:10:18.181Z,12.89
2022-11-05T02:13:23.615Z,12.45
2022-11-05T02:16:37.175Z,12.12
2022-11-05T02:20:05.111Z,12.22
2022-11-05T02:23:24.152Z,12.31
2022-11-05T02:26:46.262Z,12.33
2022-11-05T02:30:01.370Z,12.33
2022-11-05T02:33:17.915Z,12.34
2022-11-05T02:36:29.778Z,12.45
2022-11-05T02:39:40.302Z,12.08
2022-11-05T02:42:55.973Z,12.08
2022-11-05T02:46:04.740Z,12.42
2022-11-05T02:49:15.731Z,12.13
2022-11-05T02:52:24.709Z,12.08
2022-11-05T02:55:34.011Z,12.37
2022-11-05T02:58:39.512Z,12.89
2022-11-05T03:01:47.073Z,12.96
2022-11-05T03:04:52.652Z,12.98
2022-11-05T03:08:04.054Z,12.66
2022-11-05T03:11:14.433Z,12.72
2022-11-05T03:14:24.359Z,12.99
2022-11-05T03:17:35.186Z,13.36
2022-11-05T03:20:45.473Z,13.57
2022-11-05T03:23:56.181Z,14.02
2022-11-05T03:27:03.914Z,13.59
2022-11-05T03:30:11.986Z,13.36
2022-11-05T03:33:21.816Z,12.82
2022-11-05T03:36:30.736Z,12.83
2022-11-05T03:39:40.018Z,12.83
2022-11-05T03:42:49.005Z,12.90
2022-11-05T03:45:57.477Z,12.58
2022-11-05T03:49:04.408Z,12.38
2022-11-05T03:52:12.606Z,11.95
2022-11-05T03:55:18.267Z,12.08
2022-11-05T03:58:24.935Z,12.28
2022-11-05T04:01:33.067Z,12.64
2022-11-05T04:04:38.825Z,12.63
2022-11-05T04:08:03.065Z,12.48
2022-11-05T04:11:29.856Z,12.50
2022-11-05T04:14:44.315Z,12.15
2022-11-05T04:17:50.940Z,12.34
2022-11-05T04:21:14.101Z,11.76
2022-11-05T04:24:19.758Z,11.71
2022-11-05T04:27:25.327Z,11.80
2022-11-05T04:30:30.843Z,11.75
2022-11-05T04:33:36.178Z,11.54
2022-11-05T04:36:41.575Z,11.71
2022-11-05T04:39:47.090Z,11.89
2022-11-05T04:42:54.324Z,11.80
2022-11-05T04:45:59.709Z,12.12
2022-11-05T04:49:05.055Z,12.02
2022-11-05T04:52:10.492Z,12.20
2022-11-05T04:55:16.604Z,12.20
2022-11-05T04:58:22.167Z,11.77
2022-11-05T05:01:27.748Z,11.70
2022-11-05T05:04:37.050Z,11.41
2022-11-05T05:07:42.905Z,11.27
2022-11-05T05:10:48.603Z,11.62
2022-11-05T05:13:58.894Z,11.71
2022-11-05T05:17:07.207Z,11.75
2022-11-05T05:20:30.472Z,11.64
2022-11-05T05:23:37.118Z,11.62
2022-11-05T05:26:44.006Z,11.80
2022-11-05T05:29:49.616Z,12.29
2022-11-05T05:32:55.029Z,12.01
2022-11-05T05:36:04.699Z,12.01
2022-11-05T05:39:14.236Z,12.42
2022-11-05T05:42:21.480Z,12.23
2022-11-05T05:45:27.431Z,12.19
2022-11-05T05:48:33.271Z,11.93
2022-11-05T05:51:41.848Z,11.76
2022-11-05T05:54:47.234Z,11.71
2022-11-05T05:57:53.893Z,11.76
2022-11-05T06:01:04.471Z,11.88
2022-11-05T06:04:12.840Z,11.92
2022-11-05T06:07:18.309Z,12.18
2022-11-05T06:10:24.014Z,12.43
2022-11-05T06:13:30.114Z,12.06
2022-11-05T06:16:39.143Z,11.78
2022-11-05T06:19:45.417Z,12.37
2022-11-05T06:22:57.511Z,12.40
2022-11-05T06:26:03.304Z,11.67
2022-11-05T06:29:08.803Z,11.93
2022-11-05T06:32:15.925Z,12.07
2022-11-05T06:35:21.524Z,12.19
2022-11-05T06:38:26.919Z,12.26
2022-11-05T06:41:45.654Z,12.39
2022-11-05T06:44:57.850Z,12.31
2022-11-05T06:48:03.155Z,12.41
2022-11-05T06:51:08.975Z,12.02
2022-11-05T06:54:17.455Z,11.74
2022-11-05T06:57:22.928Z,12.00
2022-11-05T07:00:28.967Z,12.18
2022-11-05T07:03:34.669Z,11.90
2022-11-05T07:06:40.246Z,11.69
2022-11-05T07:09:48.159Z,11.51
2022-11-05T07:12:54.844Z,11.61
2022-11-05T07:16:03.473Z,11.65
2022-11-05T07:19:10.678Z,11.75
2022-11-05T07:22:20.942Z,11.89
2022-11-05T07:25:26.949Z,12.27
2022-11-05T07:28:32.447Z,12.44
2022-11-05T07:31:37.888Z,13.00
2022-11-05T07:34:43.246Z,12.75
2022-11-05T07:37:49.524Z,12.79
2022-11-05T07:40:55.158Z,12.44
2022-11-05T07:44:01.483Z,12.16
2022-11-05T07:47:07.109Z,11.90
2022-11-05T07:50:14.351Z,12.22
2022-11-05T07:53:20.998Z,12.68
2022-11-05T07:56:26.473Z,12.86
2022-11-05T07:59:32.056Z,12.74
2022-11-05T08:02:37.861Z,13.12
2022-11-05T08:05:44.828Z,12.96
2022-11-05T08:08:50.292Z,12.51
2022-11-05T08:12:02.600Z,12.32
2022-11-05T08:15:10.486Z,12.84
2022-11-05T08:18:18.344Z,12.88
2022-11-05T08:21:23.848Z,12.40
2022-11-05T08:24:29.353Z,12.43
2022-11-05T08:27:34.893Z,12.87
2022-11-05T08:30:40.607Z,13.15
2022-11-05T08:33:46.082Z,13.39
2022-11-05T08:36:51.644Z,13.65
2022-11-05T08:39:57.047Z,13.96
2022-11-05T08:43:03.329Z,13.63
2022-11-05T08:46:08.669Z,13.82
2022-11-05T08:49:14.657Z,13.55
2022-11-05T08:52:20.207Z,13.18
2022-11-05T08:55:28.671Z,13.18
2022-11-05T08:58:34.142Z,13.41
2022-11-05T09:01:39.759Z,12.99
2022-11-05T09:04:47.790Z,12.97
2022-11-05T09:07:59.428Z,13.12
2022-11-05T09:11:06.963Z,12.96
2022-11-05T09:14:12.623Z,13.17
2022-11-05T09:17:18.913Z,12.94
2022-11-05T09:20:24.848Z,13.23
2022-11-05T09:23:30.280Z,13.19
2022-11-05T09:26:35.488Z,13.76
2022-11-05T09:29:41.062Z,14.29
2022-11-05T09:32:46.834Z,14.40
2022-11-05T09:35:52.884Z,14.97
2022-11-05T09:38:58.420Z,14.99
2022-11-05T09:42:05.704Z,14.92
2022-11-05T09:48:34.586Z,13.79
2022-11-05T09:51:42.160Z,14.58
2022-11-05T09:54:48.809Z,14.59
2022-11-05T09:57:58.585Z,14.37
2022-11-05T10:01:04.860Z,14.46
2022-11-05T10:04:11.355Z,14.15
2022-11-05T10:07:20.014Z,14.13
2022-11-05T10:10:40.774Z,13.97
2022-11-05T10:13:48.593Z,13.75
2022-11-05T10:16:57.460Z,13.73
2022-11-05T10:20:12.011Z,14.20
2022-11-05T10:23:20.331Z,14.24
2022-11-05T10:26:28.125Z,13.77
2022-11-05T10:29:36.177Z,13.87
2022-11-05T10:32:43.173Z,14.29
2022-11-05T10:35:51.310Z,13.94
2022-11-05T10:39:00.097Z,13.84
2022-11-05T10:42:20.614Z,13.83
2022-11-05T10:45:32.009Z,14.05
2022-11-05T10:48:45.003Z,13.61
2022-11-05T10:51:54.561Z,13.75
2022-11-05T10:55:04.175Z,13.99
2022-11-05T10:58:11.301Z,14.32
2022-11-05T11:01:16.683Z,13.85
2022-11-05T11:04:24.107Z,13.73
2022-11-05T11:07:29.709Z,14.02
2022-11-05T11:10:38.701Z,13.52
2022-11-05T11:13:59.674Z,13.61
2022-11-05T11:17:27.932Z,14.13
2022-11-05T11:20:34.995Z,14.01
2022-11-05T11:23:44.633Z,13.89
2022-11-05T11:26:50.221Z,14.06
2022-11-05T11:29:59.732Z,14.15
2022-11-05T11:33:10.243Z,14.44
2022-11-05T11:36:19.330Z,14.43
2022-11-05T11:39:26.593Z,14.14
2022-11-05T11:42:34.604Z,14.25
2022-11-05T11:45:46.739Z,14.33
2022-11-05T11:48:52.569Z,14.20
2022-11-05T11:52:01.050Z,13.98
2022-11-05T11:55:18.230Z,14.07
2022-11-05T11:58:24.247Z,14.39
2022-11-05T12:01:47.471Z,14.62
2022-11-05T12:05:00.640Z,14.79
2022-11-05T12:08:14.516Z,15.13
2022-11-05T12:11:28.185Z,15.02
2022-11-05T12:14:42.321Z,14.92
2022-11-05T12:17:54.478Z,14.55
2022-11-05T12:21:06.205Z,14.49
2022-11-05T12:24:20.946Z,14.31
2022-11-05T12:27:34.639Z,14.93
2022-11-05T12:30:47.860Z,15.06
2022-11-05T12:33:58.341Z,14.97
2022-11-05T12:37:11.708Z,15.09
2022-11-05T12:40:28.920Z,14.85
2022-11-05T12:43:40.168Z,14.98
2022-11-05T12:46:52.071Z,15.45
2022-11-05T12:50:11.672Z,15.47
2022-11-05T12:53:28.112Z,15.84
2022-11-05T12:56:37.053Z,15.86
2022-11-05T12:59:44.696Z,16.00
2022-11-05T13:02:52.353Z,14.88
2022-11-05T13:06:05.495Z,15.35
2022-11-05T13:09:14.430Z,15.87
2022-11-05T13:12:23.638Z,16.05
2022-11-05T13:15:32.916Z,14.75
2022-11-05T13:18:41.345Z,14.52
2022-11-05T13:21:53.213Z,14.65
2022-11-05T13:25:00.281Z,15.12
2022-11-05T13:28:11.762Z,15.76
2022-11-05T13:31:19.756Z,16.14
2022-11-05T13:34:25.185Z,14.98
2022-11-05T13:37:53.688Z,14.84
2022-11-05T13:41:06.710Z,15.42
2022-11-05T13:44:26.399Z,15.69
2022-11-05T13:47:38.215Z,14.84
2022-11-05T13:50:55.614Z,14.56
2022-11-05T13:54:23.435Z,15.35
2022-11-05T13:57:34.416Z,15.58
2022-11-05T14:00:44.320Z,14.85
2022-11-05T14:03:50.845Z,14.46
2022-11-05T14:07:06.106Z,15.49
2022-11-05T14:10:15.979Z,16.44
2022-11-05T14:13:24.787Z,15.25
2022-11-05T14:16:41.770Z,14.33
2022-11-05T14:20:08.027Z,13.67
2022-11-05T14:23:26.920Z,14.06
2022-11-05T14:26:33.180Z,14.84
2022-11-05T14:29:44.639Z,14.34
2022-11-05T14:32:50.816Z,13.61
2022-11-05T14:36:12.758Z,14.36
2022-11-05T14:39:22.469Z,14.62
2022-11-05T14:42:32.575Z,13.85
2022-11-05T14:45:39.181Z,13.48
2022-11-05T14:48:48.161Z,14.55
2022-11-05T14:51:54.733Z,15.22
2022-11-05T14:55:00.215Z,14.47
2022-11-05T14:58:07.694Z,13.51
2022-11-05T15:01:33.399Z,13.35
2022-11-05T15:04:42.842Z,14.83
2022-11-05T15:07:57.219Z,15.21
2022-11-05T15:11:10.220Z,14.06
2022-11-05T15:14:22.196Z,13.19
2022-11-05T15:17:30.930Z,12.88
2022-11-05T15:20:40.447Z,13.88
2022-11-05T15:23:47.218Z,14.78
2022-11-05T15:26:57.365Z,13.84
2022-11-05T15:30:06.503Z,12.87
2022-11-05T15:33:17.903Z,13.10
2022-11-05T15:36:27.355Z,14.12
2022-11-05T15:39:37.888Z,14.21
2022-11-05T15:42:45.556Z,12.90
2022-11-05T15:46:04.126Z,12.15
2022-11-05T15:49:12.962Z,13.08
2022-11-05T15:52:19.503Z,13.49
2022-11-05T15:55:26.329Z,12.64
2022-11-05T15:58:32.262Z,11.63
2022-11-05T16:01:38.646Z,11.82
2022-11-05T16:04:48.657Z,12.79
2022-11-05T16:07:54.183Z,13.65
2022-11-05T16:11:00.630Z,13.48
2022-11-05T16:14:18.281Z,12.23
2022-11-05T16:17:24.406Z,11.43
2022-11-05T16:20:32.292Z,12.24
2022-11-05T16:23:45.696Z,13.02
2022-11-05T16:27:03.466Z,13.59
2022-11-05T16:30:18.274Z,14.07
2022-11-05T16:33:26.450Z,13.41
2022-11-05T16:36:32.512Z,12.14
2022-11-05T16:39:38.237Z,11.21
2022-11-05T16:42:48.365Z,10.51
2022-11-05T16:45:55.873Z,9.93
2022-11-05T16:49:01.245Z,9.42
2022-11-05T16:52:09.895Z,8.94
2022-11-05T16:55:17.358Z,8.50
2022-11-05T16:58:24.191Z,8.10
2022-11-05T17:01:29.997Z,7.74
2022-11-05T17:04:38.444Z,7.52
2022-11-05T17:07:43.881Z,8.96
2022-11-05T17:10:49.359Z,10.68
2022-11-05T17:13:54.942Z,11.69
2022-11-05T17:17:02.493Z,12.26
2022-11-05T17:20:11.187Z,12.55
2022-11-05T17:23:17.712Z,12.80
2022-11-05T17:26:23.820Z,13.06
2022-11-05T17:29:29.248Z,13.48
2022-11-05T17:32:34.767Z,13.22
2022-11-05T17:35:40.661Z,11.82
2022-11-05T17:38:46.312Z,10.66
2022-11-05T17:41:52.337Z,9.79
2022-11-05T17:45:00.719Z,9.24
2022-11-05T17:48:06.483Z,10.41
2022-11-05T17:51:13.219Z,11.79
2022-11-05T17:54:18.669Z,12.51
2022-11-05T17:57:24.517Z,12.80
2022-11-05T18:00:30.052Z,12.21
2022-11-05T18:03:35.850Z,10.79
2022-11-05T18:06:42.100Z,9.68
2022-11-05T18:09:47.565Z,8.81
2022-11-05T18:12:54.427Z,8.80
2022-11-05T18:15:59.923Z,10.17
2022-11-05T18:19:05.810Z,11.11
2022-11-05T18:22:11.238Z,11.65
2022-11-05T18:25:16.735Z,12.00
2022-11-05T18:28:22.319Z,12.26
2022-11-05T18:31:27.922Z,12.42
2022-11-05T18:34:33.707Z,11.68
2022-11-05T18:37:40.063Z,10.17
2022-11-05T18:40:45.461Z,9.02
2022-11-05T18:43:50.771Z,8.69
2022-11-05T18:46:58.674Z,9.90
2022-11-05T18:50:18.463Z,10.82
2022-11-05T18:53:23.803Z,11.11
2022-11-05T18:56:29.159Z,11.34
2022-11-05T18:59:38.603Z,11.61
2022-11-05T19:02:44.968Z,11.85
2022-11-05T19:05:50.642Z,11.01
2022-11-05T19:08:56.250Z,9.61
2022-11-05T19:12:03.459Z,8.51
2022-11-05T19:15:10.089Z,7.93
2022-11-05T19:18:15.719Z,8.78
2022-11-05T19:21:22.631Z,9.71
2022-11-05T19:24:28.306Z,10.34
2022-11-05T19:27:36.791Z,10.71
2022-11-05T19:30:42.280Z,11.05
2022-11-05T19:33:49.967Z,10.92
2022-11-05T19:36:55.471Z,9.54
2022-11-05T19:40:03.341Z,8.26
2022-11-05T19:43:10.050Z,7.31
2022-11-05T19:46:16.581Z,7.64
2022-11-05T19:49:23.943Z,8.95
2022-11-05T19:52:29.372Z,9.77
2022-11-05T19:55:34.851Z,10.16
2022-11-05T19:58:40.226Z,10.49
2022-11-05T20:01:46.008Z,10.81
2022-11-05T20:04:51.757Z,10.24
2022-11-05T20:07:57.692Z,8.78
2022-11-05T20:11:03.373Z,7.65
2022-11-05T20:14:11.947Z,7.02
2022-11-05T20:17:18.017Z,7.89
2022-11-05T20:20:25.922Z,8.90
2022-11-05T20:23:33.668Z,9.46
2022-11-05T20:26:43.344Z,9.82
2022-11-05T20:29:56.145Z,10.20
2022-11-05T20:33:01.558Z,10.48
2022-11-05T20:36:08.087Z,10.70
2022-11-05T20:39:15.644Z,10.66
2022-11-05T20:42:22.424Z,9.30
2022-11-05T20:45:27.920Z,7.95
2022-11-05T20:48:34.313Z,6.95
2022-11-05T20:51:39.751Z,6.89
2022-11-05T20:54:45.389Z,8.20
2022-11-05T20:57:50.851Z,9.16
2022-11-05T21:01:00.977Z,9.74
2022-11-05T21:04:06.802Z,10.10
2022-11-05T21:07:12.595Z,10.28
2022-11-05T21:10:21.743Z,9.88
2022-11-05T21:13:27.463Z,8.40
2022-11-05T21:16:33.220Z,7.20
2022-11-05T21:19:39.066Z,6.55
2022-11-05T21:22:45.638Z,7.45
2022-11-05T21:25:51.620Z,8.46
2022-11-05T21:28:57.094Z,9.07
2022-11-05T21:32:04.516Z,9.49
2022-11-05T21:35:10.276Z,9.82
2022-11-05T21:38:16.639Z,9.99
2022-11-05T21:41:23.501Z,8.92
2022-11-05T21:44:29.083Z,7.50
2022-11-05T21:47:34.504Z,6.50
2022-11-05T21:50:58.520Z,7.02
2022-11-05T21:54:21.598Z,8.03
2022-11-05T21:57:44.610Z,8.56
2022-11-05T22:00:52.723Z,8.89
2022-11-05T22:04:03.770Z,9.19
2022-11-05T22:07:09.904Z,9.42
2022-11-05T22:10:16.590Z,9.61
2022-11-05T22:13:22.404Z,9.77
2022-11-05T22:16:27.822Z,9.20
2022-11-05T22:19:33.690Z,7.75
2022-11-05T22:22:40.384Z,6.55
2022-11-05T22:25:45.767Z,5.76
2022-11-05T22:28:53.820Z,6.48
2022-11-05T22:31:59.424Z,7.72
2022-11-05T22:35:05.146Z,8.46
2022-11-05T22:38:12.916Z,8.75
2022-11-05T22:41:22.518Z,9.07
2022-11-05T22:44:29.208Z,9.36
2022-11-05T22:47:34.481Z,9.62
2022-11-05T22:50:40.143Z,9.45
2022-11-05T22:53:45.956Z,8.03
2022-11-05T22:56:52.666Z,6.73
2022-11-05T23:00:00.517Z,5.94
2022-11-05T23:03:06.341Z,6.72
2022-11-05T23:06:36.203Z,7.66
2022-11-05T23:09:59.297Z,8.40
2022-11-05T23:13:05.246Z,8.66
2022-11-05T23:16:28.307Z,8.64
2022-11-05T23:19:52.706Z,8.81
2022-11-05T23:23:15.808Z,8.98
2022-11-05T23:26:39.074Z,9.12
2022-11-05T23:29:44.666Z,9.31
2022-11-05T23:32:50.447Z,9.40
2022-11-05T23:36:13.489Z,8.25
2022-11-05T23:39:19.091Z,6.74
2022-11-05T23:42:42.435Z,5.86
2022-11-05T23:46:05.382Z,6.67
2022-11-05T23:49:13.853Z,7.55
2022-11-05T23:52:19.553Z,8.07
2022-11-05T23:55:25.673Z,8.57
2022-11-05T23:58:31.146Z,8.90
